createdAt,value
2022-08-17T00:00:51.808Z,75.56
2022-08-17T00:01:52.732Z,77.06
2022-08-17T00:02:44.854Z,77.45
2022-08-17T00:03:44.863Z,75.96
2022-08-17T00:04:48.486Z,75.26
2022-08-17T00:05:44.866Z,75.26
2022-08-17T00:06:44.880Z,75.35
2022-08-17T00:07:44.870Z,75.46
2022-08-17T00:08:44.884Z,76.06
2022-08-17T00:09:44.879Z,75.76
2022-08-17T00:10:44.885Z,76.15
2022-08-17T00:12:40.366Z,75.69
2022-08-17T00:12:44.942Z,75.89
2022-08-17T00:13:44.888Z,75.59
2022-08-17T00:14:44.899Z,77.19
2022-08-17T00:15:44.899Z,75.79
2022-08-17T00:16:55.334Z,76.09
2022-08-17T00:17:44.904Z,76.29
2022-08-17T00:19:01.821Z,76.29
2022-08-17T00:19:44.911Z,74.79
2022-08-17T00:20:44.919Z,76.03
2022-08-17T00:22:30.800Z,75.49
2022-08-17T00:22:44.925Z,76.39
2022-08-17T00:23:49.044Z,76.43
2022-08-17T00:24:44.934Z,74.09
2022-08-17T00:25:44.931Z,75.23
2022-08-17T00:26:45.549Z,76.19
2022-08-17T00:27:44.943Z,76.69
2022-08-17T00:28:44.945Z,77.79
2022-08-17T00:29:44.997Z,77.89
2022-08-17T00:30:51.295Z,75.79
2022-08-17T00:31:44.956Z,76.39
2022-08-17T00:33:14.716Z,76.29
2022-08-17T00:33:44.963Z,75.49
2022-08-17T00:34:44.968Z,75.29
2022-08-17T00:35:45.176Z,75.09
2022-08-17T00:36:44.973Z,76.09
2022-08-17T00:37:44.972Z,74.99
2022-08-17T00:38:44.978Z,75.79
2022-08-17T00:39:45.024Z,76.49
2022-08-17T00:40:45.134Z,76.79
2022-08-17T00:41:44.987Z,75.09
2022-08-17T00:42:44.990Z,76.09
2022-08-17T00:43:44.997Z,76.09
2022-08-17T00:44:44.999Z,75.29
2022-08-17T00:45:45.001Z,76.09
2022-08-17T00:46:45.006Z,75.79
2022-08-17T00:47:45.012Z,75.59
2022-08-17T00:48:45.012Z,75.49
2022-08-17T00:49:45.014Z,75.52
2022-08-17T00:50:45.017Z,76.43
2022-08-17T00:51:45.020Z,76.13
2022-08-17T00:52:45.031Z,76.89
2022-08-17T00:53:45.031Z,77.13
2022-08-17T00:54:45.035Z,75.89
2022-08-17T00:55:45.039Z,76.43
2022-08-17T00:56:45.040Z,77.09
2022-08-17T00:57:45.041Z,76.69
2022-08-17T00:58:45.046Z,76.59
2022-08-17T00:59:45.048Z,76.49
2022-08-17T01:00:45.096Z,76.83
2022-08-17T01:01:45.058Z,75.52
2022-08-17T01:02:45.076Z,76.93
2022-08-17T01:03:45.060Z,77.03
2022-08-17T01:04:45.065Z,76.53
2022-08-17T01:05:45.109Z,75.87
2022-08-17T01:06:45.072Z,77.17
2022-08-17T01:07:45.074Z,76.46
2022-08-17T01:08:45.080Z,77.60
2022-08-17T01:09:45.101Z,76.80
2022-08-17T01:10:58.587Z,77.50
2022-08-17T01:11:45.091Z,78.10
2022-08-17T01:12:45.095Z,78.00
2022-08-17T01:13:45.093Z,78.44
2022-08-17T01:14:45.099Z,78.64
2022-08-17T01:15:46.071Z,77.24
2022-08-17T01:16:45.105Z,78.14
2022-08-17T01:17:45.107Z,79.04
2022-08-17T01:18:45.111Z,78.64
2022-08-17T01:19:45.116Z,77.74
2022-08-17T01:20:48.520Z,78.04
2022-08-17T01:21:45.121Z,78.54
2022-08-17T01:22:45.136Z,79.08
2022-08-17T01:23:45.126Z,77.48
2022-08-17T01:24:45.130Z,78.78
2022-08-17T01:25:45.132Z,77.87
2022-08-17T01:26:45.143Z,77.78
2022-08-17T01:27:45.143Z,78.08
2022-08-17T01:28:54.120Z,78.38
2022-08-17T01:29:45.143Z,77.67
2022-08-17T01:30:59.003Z,77.28
2022-08-17T01:31:45.153Z,78.31
2022-08-17T01:32:45.166Z,77.72
2022-08-17T01:33:45.157Z,78.52
2022-08-17T01:34:50.564Z,79.22
2022-08-17T01:35:45.566Z,79.02
2022-08-17T01:36:45.166Z,79.66
2022-08-17T01:37:45.173Z,79.16
2022-08-17T01:38:45.172Z,80.46
2022-08-17T01:39:45.222Z,80.36
2022-08-17T01:40:45.176Z,80.06
2022-08-17T01:41:45.179Z,80.16
2022-08-17T01:42:45.191Z,79.75
2022-08-17T01:43:45.191Z,79.49
2022-08-17T01:44:45.191Z,80.50
2022-08-17T01:45:45.189Z,80.19
2022-08-17T01:46:45.196Z,80.70
2022-08-17T01:47:45.202Z,80.19
2022-08-17T01:48:45.202Z,80.10
2022-08-17T01:49:45.203Z,81.00
2022-08-17T01:50:45.214Z,80.54
2022-08-17T01:51:45.207Z,81.84
2022-08-17T01:52:45.216Z,81.64
2022-08-17T01:53:45.214Z,82.45
2022-08-17T01:54:45.217Z,81.64
2022-08-17T01:55:45.222Z,81.84
2022-08-17T01:56:47.262Z,81.94
2022-08-17T01:57:45.224Z,81.14
2022-08-17T01:58:45.227Z,80.94
2022-08-17T01:59:45.231Z,81.94
2022-08-17T02:00:47.087Z,81.44
2022-08-17T02:01:45.320Z,81.64
2022-08-17T02:02:45.256Z,82.14
2022-08-17T02:03:59.020Z,80.63
2022-08-17T02:04:45.249Z,80.94
2022-08-17T02:05:45.247Z,81.38
2022-08-17T02:06:54.142Z,79.47
2022-08-17T02:07:59.402Z,80.07
2022-08-17T02:09:01.909Z,80.68
2022-08-17T02:09:45.260Z,80.37
2022-08-17T02:10:46.826Z,80.47
2022-08-17T02:11:45.336Z,80.68
2022-08-17T02:12:45.272Z,79.77
2022-08-17T02:13:45.275Z,80.17
2022-08-17T02:14:45.272Z,81.27
2022-08-17T02:15:45.276Z,81.07
2022-08-17T02:16:45.280Z,81.68
2022-08-17T02:17:45.283Z,82.02
2022-08-17T02:18:45.282Z,82.32
2022-08-17T02:19:45.286Z,81.92
2022-08-17T02:20:45.286Z,81.52
2022-08-17T02:21:45.289Z,81.72
2022-08-17T02:22:45.399Z,82.82
2022-08-17T02:23:45.294Z,82.32
2022-08-17T02:25:01.293Z,81.82
2022-08-17T02:25:45.302Z,81.01
2022-08-17T02:26:45.308Z,80.51
2022-08-17T02:27:45.309Z,80.81
2022-08-17T02:28:45.306Z,80.11
2022-08-17T02:29:45.309Z,81.52
2022-08-17T02:31:01.383Z,80.91
2022-08-17T02:31:45.316Z,81.15
2022-08-17T02:32:45.365Z,80.85
2022-08-17T02:33:45.317Z,81.85
2022-08-17T02:34:45.321Z,80.95
2022-08-17T02:35:45.626Z,81.65
2022-08-17T02:36:45.326Z,80.95
2022-08-17T02:37:45.330Z,81.35
2022-08-17T02:38:45.338Z,82.66
2022-08-17T02:39:45.392Z,82.46
2022-08-17T02:40:45.335Z,83.06
2022-08-17T02:41:45.338Z,82.56
2022-08-17T02:42:45.341Z,82.26
2022-08-17T02:43:45.347Z,82.36
2022-08-17T02:44:45.348Z,82.16
2022-08-17T02:45:45.352Z,82.70
2022-08-17T02:46:45.349Z,83.20
2022-08-17T02:47:45.354Z,82.90
2022-08-17T02:48:45.354Z,82.90
2022-08-17T02:49:55.453Z,82.90
2022-08-17T02:50:45.359Z,83.00
2022-08-17T02:51:45.361Z,83.00
2022-08-17T02:52:45.365Z,83.11
2022-08-17T02:53:45.373Z,82.80
2022-08-17T02:54:45.367Z,83.11
2022-08-17T02:55:45.372Z,82.40
2022-08-17T02:56:45.373Z,82.30
2022-08-17T02:57:45.408Z,82.20
2022-08-17T02:58:45.376Z,82.80
2022-08-17T02:59:48.926Z,82.90
2022-08-17T03:00:45.381Z,82.90
2022-08-17T03:01:45.472Z,82.30
2022-08-17T03:02:45.388Z,82.30
2022-08-17T03:03:45.394Z,82.70
2022-08-17T03:04:45.392Z,82.80
2022-08-17T03:05:45.393Z,83.00
2022-08-17T03:06:45.398Z,83.14
2022-08-17T03:07:45.404Z,83.00
2022-08-17T03:08:45.403Z,82.44
2022-08-17T03:09:45.408Z,83.04
2022-08-17T03:10:45.407Z,82.80
2022-08-17T03:11:45.409Z,83.91
2022-08-17T03:12:45.409Z,83.31
2022-08-17T03:13:45.415Z,84.01
2022-08-17T03:14:45.413Z,83.11
2022-08-17T03:15:45.434Z,82.90
2022-08-17T03:16:45.417Z,84.01
2022-08-17T03:17:45.424Z,83.00
2022-08-17T03:18:45.420Z,82.70
2022-08-17T03:19:45.426Z,82.50
2022-08-17T03:20:45.427Z,82.80
2022-08-17T03:21:45.432Z,82.30
2022-08-17T03:22:48.079Z,82.40
2022-08-17T03:23:45.437Z,82.60
2022-08-17T03:24:45.437Z,83.25
2022-08-17T03:25:45.443Z,83.25
2022-08-17T03:26:45.438Z,83.14
2022-08-17T03:27:45.441Z,83.04
2022-08-17T03:28:45.453Z,83.25
2022-08-17T03:29:45.454Z,82.94
2022-08-17T03:30:45.447Z,83.14
2022-08-17T03:31:45.454Z,83.25
2022-08-17T03:32:45.456Z,84.05
2022-08-17T03:33:45.457Z,83.34
2022-08-17T03:34:45.459Z,83.45
2022-08-17T03:35:45.664Z,83.65
2022-08-17T03:36:45.461Z,83.04
2022-08-17T03:37:45.465Z,83.95
2022-08-17T03:38:45.465Z,83.04
2022-08-17T03:39:45.526Z,83.04
2022-08-17T03:40:57.193Z,83.45
2022-08-17T03:41:45.474Z,84.35
2022-08-17T03:42:45.565Z,84.75
2022-08-17T03:43:45.474Z,84.85
2022-08-17T03:44:45.479Z,84.65
2022-08-17T03:45:45.481Z,84.85
2022-08-17T03:46:45.480Z,84.65
2022-08-17T03:47:45.493Z,84.55
2022-08-17T03:48:45.488Z,84.55
2022-08-17T03:49:45.490Z,84.55
2022-08-17T03:50:45.489Z,84.05
2022-08-17T03:51:45.492Z,84.45
2022-08-17T03:52:45.496Z,84.05
2022-08-17T03:53:45.498Z,83.25
2022-08-17T03:54:45.501Z,83.04
2022-08-17T03:55:45.503Z,83.25
2022-08-17T03:56:45.504Z,83.84
2022-08-17T03:57:45.507Z,83.45
2022-08-17T03:58:45.513Z,84.09
2022-08-17T03:59:45.512Z,83.95
2022-08-17T04:00:45.525Z,84.19
2022-08-17T04:01:45.610Z,82.88
2022-08-17T04:02:45.524Z,83.69
2022-08-17T04:03:45.519Z,83.28
2022-08-17T04:04:45.540Z,84.09
2022-08-17T04:05:45.523Z,83.08
2022-08-17T04:06:45.586Z,82.58
2022-08-17T04:07:45.530Z,82.88
2022-08-17T04:08:45.527Z,84.23
2022-08-17T04:09:45.528Z,84.23
2022-08-17T04:10:45.538Z,84.13
2022-08-17T04:11:45.533Z,84.33
2022-08-17T04:12:45.536Z,84.03
2022-08-17T04:13:45.537Z,84.94
2022-08-17T04:14:51.876Z,84.94
2022-08-17T04:15:45.541Z,84.74
2022-08-17T04:16:45.541Z,85.03
2022-08-17T04:17:45.543Z,85.54
2022-08-17T04:18:45.544Z,85.34
2022-08-17T04:19:45.549Z,86.24
2022-08-17T04:20:45.549Z,86.21
2022-08-17T04:21:45.553Z,84.69
2022-08-17T04:22:45.604Z,83.99
2022-08-17T04:23:45.557Z,83.08
2022-08-17T04:24:45.557Z,83.59
2022-08-17T04:25:45.563Z,84.19
2022-08-17T04:26:53.786Z,84.69
2022-08-17T04:27:45.571Z,84.19
2022-08-17T04:28:45.565Z,84.49
2022-08-17T04:29:49.947Z,84.69
2022-08-17T04:30:45.570Z,85.10
2022-08-17T04:31:45.572Z,84.49
2022-08-17T04:33:03.523Z,84.43
2022-08-17T04:33:45.577Z,84.53
2022-08-17T04:34:45.578Z,84.63
2022-08-17T04:35:45.729Z,84.94
2022-08-17T04:36:50.249Z,86.24
2022-08-17T04:37:45.586Z,85.64
2022-08-17T04:38:45.584Z,85.24
2022-08-17T04:39:45.675Z,85.74
2022-08-17T04:40:45.589Z,84.83
2022-08-17T04:41:45.591Z,85.50
2022-08-17T04:42:45.589Z,84.80
2022-08-17T04:43:45.598Z,85.00
2022-08-17T04:44:45.596Z,84.69
2022-08-17T04:45:55.037Z,84.89
2022-08-17T04:46:45.596Z,84.69
2022-08-17T04:47:45.601Z,85.00
2022-08-17T04:48:45.600Z,84.80
2022-08-17T04:49:45.605Z,84.85
2022-08-17T04:50:45.605Z,84.75
2022-08-17T04:51:49.679Z,85.86
2022-08-17T04:52:45.612Z,85.76
2022-08-17T04:53:45.612Z,85.76
2022-08-17T04:54:45.620Z,86.06
2022-08-17T04:55:45.618Z,85.56
2022-08-17T04:56:45.617Z,85.76
2022-08-17T04:57:45.623Z,85.46
2022-08-17T04:58:45.630Z,85.86
2022-08-17T04:59:45.648Z,85.82
2022-08-17T05:00:45.625Z,86.57
2022-08-17T05:01:45.669Z,86.16
2022-08-17T05:02:49.949Z,85.72
2022-08-17T05:03:45.631Z,85.31
2022-08-17T05:04:45.636Z,85.82
2022-08-17T05:05:45.637Z,86.32
2022-08-17T05:06:45.635Z,85.68
2022-08-17T05:07:45.639Z,86.38
2022-08-17T05:08:45.640Z,85.17
2022-08-17T05:09:45.645Z,85.68
2022-08-17T05:10:45.877Z,85.38
2022-08-17T05:11:45.659Z,85.28
2022-08-17T05:12:45.647Z,85.48
2022-08-17T05:13:45.647Z,85.78
2022-08-17T05:14:45.650Z,86.04
2022-08-17T05:15:47.636Z,86.34
2022-08-17T05:16:45.653Z,86.34
2022-08-17T05:17:45.657Z,86.94
2022-08-17T05:18:45.657Z,87.15
2022-08-17T05:19:50.002Z,86.80
2022-08-17T05:20:45.662Z,86.20
2022-08-17T05:21:45.665Z,86.30
2022-08-17T05:22:45.665Z,86.10
2022-08-17T05:23:50.370Z,86.20
2022-08-17T05:24:53.944Z,85.19
2022-08-17T05:25:47.588Z,85.39
2022-08-17T05:26:45.674Z,85.66
2022-08-17T05:27:45.676Z,85.96
2022-08-17T05:28:46.042Z,86.06
2022-08-17T05:29:45.677Z,86.86
2022-08-17T05:30:45.681Z,86.76
2022-08-17T05:31:45.693Z,86.36
2022-08-17T05:32:45.721Z,86.96
2022-08-17T05:33:46.307Z,86.56
2022-08-17T05:34:45.688Z,86.56
2022-08-17T05:35:45.891Z,86.26
2022-08-17T05:36:45.693Z,86.56
2022-08-17T05:37:45.697Z,86.56
2022-08-17T05:38:45.697Z,86.56
2022-08-17T05:39:45.744Z,86.76
2022-08-17T05:40:45.703Z,86.62
2022-08-17T05:41:45.707Z,86.56
2022-08-17T05:42:45.797Z,86.72
2022-08-17T05:43:45.708Z,87.37
2022-08-17T05:44:45.709Z,87.42
2022-08-17T05:45:55.888Z,87.52
2022-08-17T05:46:45.716Z,86.82
2022-08-17T05:47:45.718Z,87.12
2022-08-17T05:48:45.719Z,87.58
2022-08-17T05:49:49.019Z,88.23
2022-08-17T05:50:45.723Z,88.39
2022-08-17T05:51:45.729Z,88.89
2022-08-17T05:52:45.734Z,87.08
2022-08-17T05:53:45.730Z,86.98
2022-08-17T05:54:45.731Z,86.58
2022-08-17T05:55:45.740Z,86.68
2022-08-17T05:56:45.739Z,86.68
2022-08-17T05:57:53.552Z,87.38
2022-08-17T05:58:45.745Z,87.18
2022-08-17T05:59:45.748Z,87.38
2022-08-17T06:00:45.820Z,87.84
2022-08-17T06:01:45.760Z,88.09
2022-08-17T06:02:47.961Z,88.29
2022-08-17T06:03:45.753Z,88.14
2022-08-17T06:04:45.754Z,88.54
2022-08-17T06:05:45.756Z,88.84
2022-08-17T06:06:45.756Z,88.95
2022-08-17T06:07:45.766Z,89.04
2022-08-17T06:08:45.764Z,89.65
2022-08-17T06:09:45.766Z,89.30
2022-08-17T06:10:45.766Z,86.64
2022-08-17T06:11:45.770Z,84.63
2022-08-17T06:12:45.848Z,84.03
2022-08-17T06:13:45.772Z,83.53
2022-08-17T06:14:45.775Z,83.03
2022-08-17T06:15:45.778Z,83.63
2022-08-17T06:16:45.782Z,84.23
2022-08-17T06:17:45.783Z,82.93
2022-08-17T06:18:45.785Z,81.68
2022-08-17T06:19:45.803Z,81.59
2022-08-17T06:20:45.791Z,82.23
2022-08-17T06:21:45.809Z,82.18
2022-08-17T06:22:45.804Z,80.98
2022-08-17T06:23:45.797Z,81.99
2022-08-17T06:24:45.799Z,80.58
2022-08-17T06:25:45.799Z,80.38
2022-08-17T06:26:45.808Z,79.78
2022-08-17T06:27:45.805Z,80.28
2022-08-17T06:28:45.810Z,81.59
2022-08-17T06:29:45.813Z,82.18
2022-08-17T06:30:59.743Z,82.18
2022-08-17T06:31:45.816Z,81.85
2022-08-17T06:32:45.827Z,79.18
2022-08-17T06:33:45.818Z,79.54
2022-08-17T06:34:45.826Z,80.54
2022-08-17T06:35:45.824Z,81.04
2022-08-17T06:36:45.831Z,82.15
2022-08-17T06:37:45.831Z,82.24
2022-08-17T06:38:45.835Z,82.24
2022-08-17T06:39:45.925Z,82.45
2022-08-17T06:40:45.838Z,82.35
2022-08-17T06:41:45.840Z,82.45
2022-08-17T06:42:54.713Z,82.35
2022-08-17T06:43:47.994Z,83.15
2022-08-17T06:44:51.267Z,82.75
2022-08-17T06:45:45.848Z,82.75
2022-08-17T06:46:45.858Z,81.95
2022-08-17T06:47:45.854Z,82.35
2022-08-17T06:48:45.861Z,83.65
2022-08-17T06:49:45.863Z,83.05
2022-08-17T06:50:45.866Z,83.75
2022-08-17T06:51:45.864Z,83.85
2022-08-17T06:52:47.501Z,82.85
2022-08-17T06:53:45.871Z,83.15
2022-08-17T06:54:45.876Z,83.75
2022-08-17T06:55:45.878Z,82.15
2022-08-17T06:56:53.295Z,81.65
2022-08-17T06:57:45.879Z,81.85
2022-08-17T06:58:45.883Z,82.15
2022-08-17T06:59:56.145Z,81.85
2022-08-17T07:00:45.999Z,83.85
2022-08-17T07:01:45.905Z,83.85
2022-08-17T07:02:53.049Z,82.05
2022-08-17T07:03:45.898Z,79.34
2022-08-17T07:04:45.902Z,81.71
2022-08-17T07:05:45.903Z,81.30
2022-08-17T07:06:45.903Z,80.21
2022-08-17T07:07:45.911Z,79.30
2022-08-17T07:08:45.908Z,80.61
2022-08-17T07:09:45.928Z,79.71
2022-08-17T07:10:45.925Z,78.20
2022-08-17T07:11:45.915Z,77.80
2022-08-17T07:12:45.978Z,78.17
2022-08-17T07:13:51.321Z,78.47
2022-08-17T07:14:45.925Z,78.36
2022-08-17T07:15:45.925Z,78.93
2022-08-17T07:16:45.927Z,78.83
2022-08-17T07:17:47.463Z,77.93
2022-08-17T07:18:45.937Z,79.03
2022-08-17T07:19:45.934Z,77.23
2022-08-17T07:20:45.943Z,78.23
2022-08-17T07:21:45.941Z,77.89
2022-08-17T07:22:57.238Z,77.43
2022-08-17T07:23:45.948Z,75.99
2022-08-17T07:24:45.955Z,77.29
2022-08-17T07:25:45.954Z,77.09
2022-08-17T07:26:45.962Z,77.49
2022-08-17T07:27:45.958Z,78.99
2022-08-17T07:28:45.970Z,77.69
2022-08-17T07:29:45.967Z,77.89
2022-08-17T07:30:47.411Z,78.09
2022-08-17T07:31:45.968Z,78.79
2022-08-17T07:32:45.973Z,77.56
2022-08-17T07:33:45.977Z,76.56
2022-08-17T07:34:45.984Z,76.56
2022-08-17T07:35:46.332Z,78.66
2022-08-17T07:36:45.986Z,77.66
2022-08-17T07:37:46.010Z,76.26
2022-08-17T07:38:45.993Z,77.75
2022-08-17T07:39:59.569Z,77.15
2022-08-17T07:40:46.036Z,76.76
2022-08-17T07:41:57.360Z,77.06
2022-08-17T07:42:46.675Z,78.36
2022-08-17T07:43:46.004Z,76.06
2022-08-17T07:44:46.011Z,78.16
2022-08-17T07:45:46.013Z,78.02
2022-08-17T07:46:46.017Z,78.66
2022-08-17T07:47:46.073Z,77.82
2022-08-17T07:48:46.026Z,76.95
2022-08-17T07:49:46.069Z,76.42
2022-08-17T07:50:49.704Z,77.02
2022-08-17T07:51:46.028Z,77.56
2022-08-17T07:52:50.463Z,78.31
2022-08-17T07:53:46.030Z,76.92
2022-08-17T07:54:46.034Z,76.52
2022-08-17T07:55:46.039Z,76.62
2022-08-17T07:56:46.044Z,75.82
2022-08-17T07:57:46.043Z,76.32
2022-08-17T07:58:46.047Z,76.62
2022-08-17T07:59:46.055Z,75.22
2022-08-17T08:00:46.049Z,75.76
2022-08-17T08:01:46.118Z,76.12
2022-08-17T08:02:46.060Z,76.52
2022-08-17T08:03:46.062Z,77.82
2022-08-17T08:05:02.228Z,76.42
2022-08-17T08:05:49.980Z,76.92
2022-08-17T08:06:46.071Z,77.72
2022-08-17T08:07:46.093Z,77.72
2022-08-17T08:08:46.074Z,78.12
2022-08-17T08:09:46.078Z,78.72
2022-08-17T08:10:46.079Z,78.42
2022-08-17T08:11:46.081Z,77.62
2022-08-17T08:12:46.087Z,77.92
2022-08-17T08:13:46.159Z,77.82
2022-08-17T08:14:46.093Z,78.22
2022-08-17T08:15:53.672Z,78.92
2022-08-17T08:16:46.102Z,78.12
2022-08-17T08:17:46.232Z,78.52
2022-08-17T08:18:54.152Z,79.11
2022-08-17T08:19:46.105Z,78.02
2022-08-17T08:20:52.412Z,78.12
2022-08-17T08:21:46.110Z,76.42
2022-08-17T08:22:46.121Z,77.72
2022-08-17T08:23:46.119Z,79.11
2022-08-17T08:24:46.119Z,78.92
2022-08-17T08:25:47.985Z,77.88
2022-08-17T08:26:46.128Z,78.88
2022-08-17T08:27:46.127Z,77.88
2022-08-17T08:28:46.132Z,76.78
2022-08-17T08:29:46.136Z,76.72
2022-08-17T08:30:46.137Z,76.98
2022-08-17T08:31:46.140Z,78.38
2022-08-17T08:32:46.145Z,77.68
2022-08-17T08:33:46.145Z,78.78
2022-08-17T08:35:01.736Z,77.58
2022-08-17T08:35:46.303Z,78.48
2022-08-17T08:37:14.145Z,78.48
2022-08-17T08:37:46.270Z,77.98
2022-08-17T08:38:46.168Z,78.18
2022-08-17T08:39:46.225Z,79.08
2022-08-17T08:40:46.170Z,79.17
2022-08-17T08:41:46.172Z,79.78
2022-08-17T08:42:46.174Z,79.68
2022-08-17T08:43:50.793Z,79.68
2022-08-17T08:45:00.503Z,77.12
2022-08-17T08:45:46.181Z,78.52
2022-08-17T08:46:46.187Z,78.42
2022-08-17T08:47:46.189Z,78.61
2022-08-17T08:48:56.433Z,79.22
2022-08-17T08:50:03.507Z,78.22
2022-08-17T08:50:46.201Z,78.58
2022-08-17T08:51:46.201Z,78.61
2022-08-17T08:52:46.205Z,78.92
2022-08-17T08:53:46.228Z,79.32
2022-08-17T08:54:46.210Z,79.82
2022-08-17T08:55:46.223Z,79.22
2022-08-17T08:57:19.256Z,78.92
2022-08-17T08:57:46.344Z,78.22
2022-08-17T08:58:46.228Z,78.81
2022-08-17T08:59:51.168Z,78.31
2022-08-17T09:00:46.252Z,78.61
2022-08-17T09:01:46.302Z,77.92
2022-08-17T09:02:46.239Z,76.92
2022-08-17T09:03:52.711Z,78.22
2022-08-17T09:05:12.950Z,77.51
2022-08-17T09:05:46.251Z,78.72
2022-08-17T09:06:46.252Z,77.72
2022-08-17T09:07:46.305Z,78.72
2022-08-17T09:08:46.257Z,79.22
2022-08-17T09:09:46.259Z,79.32
2022-08-17T09:10:46.267Z,79.11
2022-08-17T09:12:02.203Z,78.52
2022-08-17T09:12:46.269Z,77.92
2022-08-17T09:13:46.277Z,76.52
2022-08-17T09:14:47.506Z,77.62
2022-08-17T09:15:46.279Z,78.31
2022-08-17T09:16:46.288Z,78.61
2022-08-17T09:17:46.342Z,79.22
2022-08-17T09:19:03.059Z,79.22
2022-08-17T09:19:46.293Z,79.72
2022-08-17T09:20:50.067Z,79.91
2022-08-17T09:21:47.888Z,79.22
2022-08-17T09:22:46.300Z,79.22
2022-08-17T09:23:46.303Z,79.22
2022-08-17T09:24:46.311Z,79.41
2022-08-17T09:25:46.308Z,79.72
2022-08-17T09:26:46.610Z,79.61
2022-08-17T09:27:46.380Z,79.72
2022-08-17T09:28:46.321Z,80.51
2022-08-17T09:29:46.321Z,80.62
2022-08-17T09:30:46.335Z,80.62
2022-08-17T09:31:48.901Z,80.11
2022-08-17T09:32:46.330Z,78.72
2022-08-17T09:33:46.336Z,78.72
2022-08-17T09:34:48.379Z,79.52
2022-08-17T09:35:46.556Z,79.61
2022-08-17T09:36:46.595Z,79.52
2022-08-17T09:37:46.365Z,78.42
2022-08-17T09:38:46.352Z,78.61
2022-08-17T09:39:46.495Z,77.12
2022-08-17T09:40:46.472Z,77.72
2022-08-17T09:41:48.867Z,78.12
2022-08-17T09:42:46.366Z,79.02
2022-08-17T09:43:46.366Z,79.52
2022-08-17T09:44:46.373Z,79.52
2022-08-17T09:45:46.371Z,79.72
2022-08-17T09:46:46.383Z,80.02
2022-08-17T09:47:46.499Z,80.21
2022-08-17T09:48:46.384Z,80.21
2022-08-17T09:49:46.385Z,80.71
2022-08-17T09:51:04.074Z,80.71
2022-08-17T09:51:46.392Z,80.41
2022-08-17T09:52:46.396Z,80.11
2022-08-17T09:53:46.398Z,79.41
2022-08-17T09:54:46.402Z,78.22
2022-08-17T09:55:46.406Z,79.52
2022-08-17T09:56:56.450Z,79.72
2022-08-17T09:57:46.486Z,80.41
2022-08-17T09:58:46.420Z,80.11
2022-08-17T09:59:46.420Z,79.72
2022-08-17T10:00:46.483Z,78.42
2022-08-17T10:01:46.432Z,78.72
2022-08-17T10:02:46.432Z,79.41
2022-08-17T10:03:46.442Z,79.72
2022-08-17T10:04:46.441Z,80.21
2022-08-17T10:05:46.646Z,80.41
2022-08-17T10:06:46.442Z,79.72
2022-08-17T10:07:46.523Z,80.51
2022-08-17T10:08:46.450Z,80.71
2022-08-17T10:09:46.455Z,80.21
2022-08-17T10:10:56.269Z,79.85
2022-08-17T10:11:46.462Z,80.41
2022-08-17T10:12:47.223Z,80.85
2022-08-17T10:13:52.675Z,80.45
2022-08-17T10:14:46.475Z,81.51
2022-08-17T10:15:46.471Z,81.15
2022-08-17T10:16:46.483Z,81.45
2022-08-17T10:17:46.570Z,81.45
2022-08-17T10:18:46.481Z,81.35
2022-08-17T10:19:46.485Z,82.15
2022-08-17T10:20:46.489Z,79.16
2022-08-17T10:21:46.488Z,80.65
2022-08-17T10:22:49.926Z,79.96
2022-08-17T10:23:46.498Z,79.96
2022-08-17T10:25:13.513Z,80.35
2022-08-17T10:25:55.270Z,80.65
2022-08-17T10:26:56.730Z,80.26
2022-08-17T10:27:46.573Z,78.85
2022-08-17T10:28:46.514Z,80.45
2022-08-17T10:29:48.626Z,79.16
2022-08-17T10:30:46.525Z,80.15
2022-08-17T10:31:46.527Z,80.35
2022-08-17T10:32:46.528Z,80.65
2022-08-17T10:33:46.527Z,80.45
2022-08-17T10:34:46.538Z,80.76
2022-08-17T10:35:46.738Z,81.25
2022-08-17T10:36:46.543Z,80.85
2022-08-17T10:37:46.663Z,80.35
2022-08-17T10:38:46.545Z,79.55
2022-08-17T10:39:52.356Z,78.96
2022-08-17T10:40:46.650Z,78.36
2022-08-17T10:41:46.580Z,78.66
2022-08-17T10:42:46.562Z,78.66
2022-08-17T10:43:57.891Z,79.16
2022-08-17T10:44:46.566Z,78.66
2022-08-17T10:45:47.069Z,78.55
2022-08-17T10:46:46.570Z,78.75
2022-08-17T10:47:55.153Z,78.45
2022-08-17T10:48:46.582Z,78.85
2022-08-17T10:49:46.588Z,80.05
2022-08-17T10:50:46.584Z,79.75
2022-08-17T10:51:46.590Z,78.75
2022-08-17T10:52:46.590Z,78.96
2022-08-17T10:53:46.593Z,79.46
2022-08-17T10:54:46.602Z,80.15
2022-08-17T10:55:46.600Z,79.96
2022-08-17T10:56:46.602Z,78.75
2022-08-17T10:57:46.688Z,79.16
2022-08-17T10:58:46.609Z,78.96
2022-08-17T10:59:46.613Z,79.05
2022-08-17T11:00:46.659Z,79.05
2022-08-17T11:01:46.621Z,80.45
2022-08-17T11:02:46.645Z,80.45
2022-08-17T11:03:46.629Z,80.26
2022-08-17T11:04:46.631Z,80.95
2022-08-17T11:05:46.632Z,80.45
2022-08-17T11:06:46.639Z,80.26
2022-08-17T11:07:46.640Z,79.85
2022-08-17T11:08:46.641Z,79.46
2022-08-17T11:09:46.647Z,79.85
2022-08-17T11:10:51.796Z,80.15
2022-08-17T11:11:46.652Z,79.75
2022-08-17T11:12:46.658Z,79.75
2022-08-17T11:13:46.665Z,78.96
2022-08-17T11:14:46.659Z,79.46
2022-08-17T11:15:46.665Z,80.15
2022-08-17T11:16:46.666Z,80.35
2022-08-17T11:17:46.669Z,81.12
2022-08-17T11:18:46.671Z,80.32
2022-08-17T11:19:46.676Z,79.82
2022-08-17T11:20:46.678Z,81.12
2022-08-17T11:21:46.692Z,81.41
2022-08-17T11:22:46.737Z,81.21
2022-08-17T11:23:46.690Z,81.81
2022-08-17T11:24:46.692Z,81.57
2022-08-17T11:25:46.695Z,81.71
2022-08-17T11:26:46.698Z,82.21
2022-08-17T11:27:46.701Z,82.37
2022-08-17T11:28:46.702Z,82.57
2022-08-17T11:29:51.957Z,81.98
2022-08-17T11:30:46.712Z,81.84
2022-08-17T11:31:46.717Z,81.93
2022-08-17T11:32:47.468Z,80.04
2022-08-17T11:33:46.719Z,79.54
2022-08-17T11:34:46.722Z,79.00
2022-08-17T11:35:47.178Z,79.34
2022-08-17T11:36:46.729Z,79.14
2022-08-17T11:37:46.733Z,79.74
2022-08-17T11:38:46.735Z,79.30
2022-08-17T11:39:46.825Z,80.10
2022-08-17T11:40:46.743Z,78.30
2022-08-17T11:41:46.752Z,79.00
2022-08-17T11:42:46.799Z,79.70
2022-08-17T11:43:46.754Z,81.79
2022-08-17T11:44:46.758Z,80.30
2022-08-17T11:45:46.766Z,81.00
2022-08-17T11:46:50.993Z,81.00
2022-08-17T11:48:02.268Z,81.43
2022-08-17T11:48:46.771Z,81.84
2022-08-17T11:49:46.774Z,81.79
2022-08-17T11:50:46.777Z,80.40
2022-08-17T11:51:46.783Z,80.24
2022-08-17T11:52:47.075Z,79.00
2022-08-17T11:53:46.788Z,79.60
2022-08-17T11:54:46.789Z,79.70
2022-08-17T11:55:46.798Z,80.10
2022-08-17T11:56:46.796Z,79.60
2022-08-17T11:57:46.846Z,79.80
2022-08-17T11:58:46.807Z,81.20
2022-08-17T11:59:46.808Z,79.30
2022-08-17T12:00:46.816Z,79.30
2022-08-17T12:01:46.822Z,79.50
2022-08-17T12:02:48.440Z,78.80
2022-08-17T12:03:55.472Z,79.06
2022-08-17T12:04:46.854Z,78.17
2022-08-17T12:05:46.835Z,77.67
2022-08-17T12:06:46.829Z,78.37
2022-08-17T12:07:46.835Z,78.27
2022-08-17T12:08:46.841Z,78.97
2022-08-17T12:09:46.845Z,78.97
2022-08-17T12:10:46.845Z,79.36
2022-08-17T12:11:56.346Z,79.46
2022-08-17T12:12:46.894Z,80.26
2022-08-17T12:13:46.860Z,78.67
2022-08-17T12:15:11.079Z,79.27
2022-08-17T12:15:46.864Z,79.82
2022-08-17T12:16:46.870Z,79.57
2022-08-17T12:17:46.870Z,78.56
2022-08-17T12:18:46.871Z,78.27
2022-08-17T12:19:46.877Z,79.03
2022-08-17T12:20:46.882Z,79.82
2022-08-17T12:21:46.889Z,78.73
2022-08-17T12:22:46.886Z,78.63
2022-08-17T12:23:46.893Z,79.03
2022-08-17T12:24:46.896Z,78.03
2022-08-17T12:25:46.908Z,77.93
2022-08-17T12:26:46.904Z,78.23
2022-08-17T12:28:06.631Z,78.63
2022-08-17T12:28:46.939Z,77.73
2022-08-17T12:29:46.928Z,79.33
2022-08-17T12:30:46.918Z,79.43
2022-08-17T12:31:46.922Z,80.29
2022-08-17T12:32:46.927Z,80.02
2022-08-17T12:33:46.927Z,79.63
2022-08-17T12:34:46.929Z,78.92
2022-08-17T12:35:46.935Z,79.52
2022-08-17T12:36:46.945Z,77.89
2022-08-17T12:37:47.069Z,78.29
2022-08-17T12:38:46.945Z,77.39
2022-08-17T12:39:46.993Z,78.29
2022-08-17T12:40:47.356Z,77.80
2022-08-17T12:41:47.208Z,76.79
2022-08-17T12:42:46.958Z,76.20
2022-08-17T12:43:46.973Z,76.00
2022-08-17T12:44:50.700Z,76.60
2022-08-17T12:45:46.973Z,77.89
2022-08-17T12:46:46.974Z,77.29
2022-08-17T12:47:46.996Z,75.50
2022-08-17T12:48:59.526Z,76.10
2022-08-17T12:49:46.987Z,75.90
2022-08-17T12:50:46.988Z,76.10
2022-08-17T12:51:46.993Z,76.20
2022-08-17T12:52:46.996Z,76.20